Terminal Aerodrome Forecast
Issued by NWS

Home | Current Version | Previous Version | Text Only | Print | Product List | Glossary On
Versions: 1 2 3 4 5 6 7 8 9 10 11 12 13 14 15 16 17 18 19 20 21 22 23 24 25 26 27 28 29 30
000
FTUS41 KCTP 280533
TAFBFD
TAF
KBFD 280533Z 2806/2906 VRB03KT 6SM BR SCT045
     FM280700 00000KT 3SM BR VCFG SCT035
     FM280800 00000KT 1SM BR VCFG SCT035
     FM281300 17005KT P6SM BKN040
     FM281800 17005KT P6SM VCSH BKN040
     FM290200 16005KT 4SM -SHRA BR OVC025=

USA.gov is the U.S. government's official web portal to all federal, state and local government web resources and services.